Portada
METAR-TAF:

METAR-TAF

Aeroports :

Malé, Maldives

latitud: 04-12N, longitud: 073-32E, altitud: 2 m

Observació

L'informe es va fer fa 44 minuts, a les 06:00 UTC
Vent 8 kt del Sud-Est
Temperatura 30°C
Humitat 75%
Pressió 1011 hPa
Visibilitat 10 km o més
Escasses núvols a una alçada de 1800 ft, Cumulus congestus.
Cel ennuvolat a una alçada de 27000 ft

METAR: VRMM 190600Z 14008KT 9999 FEW018TCU BKN270 30/25 Q1011 NOSIG

Hora: 11:44 (06:44 UTC)

Pronòstic

L'informe es va fer fa 1 hora i 44 minuts, a les 05:00 UTC
Pronòstic vàlid del 19 a les 06 UTC al 20 a les 12 UTC
Vent 7 kt del Sud-Est
Visibilitat 10 km o més
Escasses núvols a una alçada de 1800 ft, Cumulus congestus.
Cel ennuvolat a una alçada de 12000 ft
Temporalment
l' 19 a les 08 UTC al 19 a les 13 UTC
Visibilitat: 4000 m
Núvols disperses a una alçada de 1700 ft, Cumulonimbus.
xàfecs de pluja

TAF: VRMM 190500Z 1906/2012 14007KT 9999 FEW018TCU BKN120 TEMPO 1908/1913 4000 SHRA SCT017CB

Observacions i pronòstics meteorològics de més de 4000 aeroports (METAR i TAF).

Les estacions disponibles són els punts grocs i vermells al mapa.

Posi el ratolí al punt desitjat per veure el nom de l'estació.

Feu clic per veure les observacions i els pronòstics meteorològics.

Per canviar el mapa: feu clic els botons verds amb una creu de color negre per apropar; al botó verd amb un guió per allunyar la imatge; o en les fletxes verdes per a mapes adjacents.


METAR-TAF: